Terminal Aerodrome Forecast
Issued by NWS Cleveland, OH

Home | Current Version | Previous Version | Graphics & Text | Print | Product List | Glossary On
Versions: 1 2 3 4 5 6 7 8 9 10 11 12 13 14 15 16 17 18 19
000
FTUS41 KCLE 081300 AAA
TAFERI
TAF AMD
KERI 081335Z 0814/0912 21012G20KT P6SM BKN015 BKN035
     FM081700 22014G22KT 5SM -SHRA BR SCT012 OVC025
      TEMPO 0817/0820 3SM TSRA BR SCT008 OVC012CB
     FM082000 23015G25KT P6SM BKN035
     FM090200 25012KT P6SM SCT025 BKN035=

USA.gov is the U.S. government's official web portal to all federal, state and local government web resources and services.